<?xml version="1.0" encoding="UTF-8" standalone="no" ?>
<gpx xmlns="http://www.topografix.com/GPX/1/1" xmlns:xsi="http://www.w3.org/2001/XMLSchema-instance" xsi:schemaLocation="http://www.topografix.com/GPX/1/1 http://www.topografix.com/GPX/1/1/gpx.xsd" version="1.1" creator="VisuGPX - https://www.visugpx.com">
  <metadata>
    <name>Argentina</name>
    <desc><![CDATA[Downloaded from eMap Software Version 2.75]]></desc>
  </metadata>
  <trk>
    <name><![CDATA[Argentina_80]]></name>
    <extensions>
      <line xmlns="http://www.topografix.com/GPX/gpx_style/0/2">
        <color>ff0000</color>
        <opacity>0.78</opacity>
        <width>0.6000</width>
      </line>
    </extensions>
    <trkseg>
      <trkpt lat="44.19673" lon="6.85556">
        <ele>2240.970459</ele>
        <time>2008-08-10T09:49:13Z</time>
      </trkpt>
      <trkpt lat="44.19632" lon="6.85571">
        <ele>2239.528564</ele>
        <time>2008-08-10T09:49:24Z</time>
      </trkpt>
      <trkpt lat="44.19615" lon="6.85545">
        <ele>2241.931885</ele>
        <time>2008-08-10T09:49:41Z</time>
      </trkpt>
      <trkpt lat="44.19613" lon="6.85543">
        <ele>2241.451172</ele>
        <time>2008-08-10T09:49:42Z</time>
      </trkpt>
      <trkpt lat="44.19613" lon="6.85536">
        <ele>2240.489746</ele>
        <time>2008-08-10T09:49:46Z</time>
      </trkpt>
      <trkpt lat="44.19602" lon="6.85489">
        <ele>2240.009277</ele>
        <time>2008-08-10T09:50:19Z</time>
      </trkpt>
      <trkpt lat="44.19587" lon="6.8544">
        <ele>2240.970459</ele>
        <time>2008-08-10T09:50:55Z</time>
      </trkpt>
      <trkpt lat="44.19579" lon="6.85435">
        <ele>2240.970459</ele>
        <time>2008-08-10T09:51:04Z</time>
      </trkpt>
      <trkpt lat="44.19547" lon="6.8542">
        <ele>2241.451172</ele>
        <time>2008-08-10T09:51:40Z</time>
      </trkpt>
      <trkpt lat="44.19532" lon="6.85395">
        <ele>2241.451172</ele>
        <time>2008-08-10T09:52:09Z</time>
      </trkpt>
      <trkpt lat="44.19527" lon="6.85386">
        <ele>2239.047852</ele>
        <time>2008-08-10T09:52:24Z</time>
      </trkpt>
      <trkpt lat="44.19495" lon="6.85347">
        <ele>2240.489746</ele>
        <time>2008-08-10T09:53:16Z</time>
      </trkpt>
      <trkpt lat="44.19506" lon="6.85324">
        <ele>2239.528564</ele>
        <time>2008-08-10T09:53:48Z</time>
      </trkpt>
      <trkpt lat="44.19506" lon="6.85311">
        <ele>2239.528564</ele>
        <time>2008-08-10T09:53:59Z</time>
      </trkpt>
      <trkpt lat="44.19497" lon="6.85251">
        <ele>2239.528564</ele>
        <time>2008-08-10T09:54:48Z</time>
      </trkpt>
      <trkpt lat="44.19508" lon="6.85201">
        <ele>2239.528564</ele>
        <time>2008-08-10T09:55:29Z</time>
      </trkpt>
      <trkpt lat="44.19502" lon="6.85167">
        <ele>2238.567383</ele>
        <time>2008-08-10T09:56:13Z</time>
      </trkpt>
    </trkseg>
  </trk>
</gpx>